createdAt,value
2022-11-16T00:01:37.179Z,3.83
2022-11-16T00:04:05.042Z,3.03
2022-11-16T00:06:32.709Z,3.55
2022-11-16T00:09:19.921Z,3.42
2022-11-16T00:11:52.295Z,3.60
2022-11-16T00:14:20.471Z,3.83
2022-11-16T00:16:48.295Z,3.60
2022-11-16T00:19:15.768Z,3.75
2022-11-16T00:21:43.300Z,3.72
2022-11-16T00:24:12.868Z,3.47
2022-11-16T00:26:40.675Z,3.53
2022-11-16T00:29:14.428Z,3.47
2022-11-16T00:31:41.866Z,3.53
2022-11-16T00:34:09.324Z,3.65
2022-11-16T00:36:36.812Z,3.72
2022-11-16T00:39:05.442Z,3.80
2022-11-16T00:41:32.959Z,4.13
2022-11-16T00:44:00.425Z,3.85
2022-11-16T00:46:29.268Z,4.18
2022-11-16T00:48:56.741Z,4.43
2022-11-16T00:51:24.292Z,4.45
2022-11-16T00:53:51.773Z,4.05
2022-11-16T00:56:19.251Z,4.57
2022-11-16T00:58:46.655Z,4.18
2022-11-16T01:01:14.232Z,4.15
2022-11-16T01:03:43.189Z,4.53
2022-11-16T01:06:13.639Z,4.22
2022-11-16T01:08:42.532Z,4.07
2022-11-16T01:11:28.430Z,4.03
2022-11-16T01:13:56.916Z,4.80
2022-11-16T01:16:25.206Z,4.10
2022-11-16T01:18:55.817Z,4.20
2022-11-16T01:21:24.105Z,3.95
2022-11-16T01:23:54.524Z,3.50
2022-11-16T01:26:22.137Z,3.88
2022-11-16T01:28:49.740Z,3.60
2022-11-16T01:31:17.230Z,4.07
2022-11-16T01:33:44.707Z,4.20
2022-11-16T01:36:15.253Z,3.88
2022-11-16T01:38:43.773Z,4.55
2022-11-16T01:41:15.061Z,4.20
2022-11-16T01:43:54.796Z,4.25
2022-11-16T01:46:22.665Z,4.30
2022-11-16T01:48:53.903Z,4.35
2022-11-16T01:51:23.837Z,4.43
2022-11-16T01:53:51.976Z,4.28
2022-11-16T01:56:19.852Z,4.35
2022-11-16T01:58:47.667Z,4.03
2022-11-16T02:01:15.268Z,4.50
2022-11-16T02:03:42.839Z,4.07
2022-11-16T02:06:29.833Z,4.15
2022-11-16T02:09:33.465Z,4.78
2022-11-16T02:12:14.271Z,4.80
2022-11-16T02:15:00.055Z,4.65
2022-11-16T02:17:37.292Z,5.28
2022-11-16T02:20:35.792Z,4.50
2022-11-16T02:23:19.338Z,4.70
2022-11-16T02:25:59.457Z,4.57
2022-11-16T02:28:36.548Z,4.47
2022-11-16T02:31:13.582Z,4.30
2022-11-16T02:33:42.724Z,4.07
2022-11-16T02:36:14.335Z,4.45
2022-11-16T02:38:48.772Z,4.43
2022-11-16T02:41:21.338Z,4.20
2022-11-16T02:43:57.764Z,4.38
2022-11-16T02:46:30.224Z,4.20
2022-11-16T02:49:01.955Z,3.92
2022-11-16T02:51:31.325Z,4.53
2022-11-16T02:54:03.638Z,4.03
2022-11-16T02:56:31.788Z,3.95
2022-11-16T02:59:00.478Z,3.83
2022-11-16T03:01:36.157Z,4.05
2022-11-16T03:04:10.737Z,3.88
2022-11-16T03:06:41.418Z,3.05
2022-11-16T03:09:12.883Z,3.65
2022-11-16T03:12:03.045Z,3.00
2022-11-16T03:14:35.999Z,2.90
2022-11-16T03:17:08.467Z,3.33
2022-11-16T03:19:42.812Z,2.97
2022-11-16T03:22:15.240Z,2.10
2022-11-16T03:24:43.567Z,2.60
2022-11-16T03:27:22.431Z,2.33
2022-11-16T03:29:59.511Z,2.50
2022-11-16T03:32:30.719Z,2.53
2022-11-16T03:35:03.537Z,2.50
2022-11-16T03:37:32.718Z,2.45
2022-11-16T03:40:02.577Z,2.83
2022-11-16T03:42:30.677Z,2.38
2022-11-16T03:44:58.964Z,2.60
2022-11-16T03:47:27.779Z,2.58
2022-11-16T03:49:55.230Z,2.38
2022-11-16T03:52:23.025Z,2.15
2022-11-16T03:54:50.467Z,2.22
2022-11-16T03:57:18.559Z,2.55
2022-11-16T03:59:46.117Z,1.92
2022-11-16T04:02:13.691Z,2.40
2022-11-16T04:05:00.306Z,2.13
2022-11-16T04:07:45.713Z,2.45
2022-11-16T04:10:31.488Z,2.42
2022-11-16T04:13:17.742Z,2.40
2022-11-16T04:16:03.144Z,2.30
2022-11-16T04:18:48.453Z,2.22
2022-11-16T04:21:39.947Z,2.13
2022-11-16T04:24:13.635Z,2.33
2022-11-16T04:27:01.623Z,2.33
2022-11-16T04:29:30.153Z,2.33
2022-11-16T04:32:29.623Z,2.05
2022-11-16T04:35:15.188Z,2.20
2022-11-16T04:37:50.015Z,2.30
2022-11-16T04:40:18.079Z,1.88
2022-11-16T04:42:52.171Z,2.05
2022-11-16T04:45:37.781Z,2.40
2022-11-16T04:50:33.324Z,2.22
2022-11-16T04:53:02.286Z,2.45
2022-11-16T04:55:29.922Z,2.47
2022-11-16T04:57:57.379Z,2.50
2022-11-16T05:00:25.156Z,2.92
2022-11-16T05:02:55.679Z,2.55
2022-11-16T05:05:27.252Z,2.80
2022-11-16T05:07:54.722Z,2.60
2022-11-16T05:10:23.681Z,2.80
2022-11-16T05:12:51.159Z,2.65
2022-11-16T05:15:19.678Z,3.22
2022-11-16T05:17:47.560Z,3.35
2022-11-16T05:20:32.628Z,2.65
2022-11-16T05:23:00.438Z,2.50
2022-11-16T05:25:33.828Z,2.20
2022-11-16T05:28:04.004Z,2.67
2022-11-16T05:30:31.501Z,2.40
2022-11-16T05:32:58.956Z,2.70
2022-11-16T05:35:26.425Z,2.60
2022-11-16T05:37:53.909Z,2.53
2022-11-16T05:40:21.348Z,2.50
2022-11-16T05:42:50.139Z,2.42
2022-11-16T05:45:20.983Z,2.50
2022-11-16T05:47:48.775Z,2.25
2022-11-16T05:50:16.914Z,2.28
2022-11-16T05:52:44.820Z,2.42
2022-11-16T05:55:12.306Z,1.70
2022-11-16T05:57:39.750Z,1.70
2022-11-16T06:00:10.103Z,1.90
2022-11-16T06:02:37.580Z,1.73
2022-11-16T06:05:05.449Z,1.90
2022-11-16T06:07:34.193Z,1.90
2022-11-16T06:10:01.724Z,1.73
2022-11-16T06:12:29.166Z,1.75
2022-11-16T06:14:56.631Z,1.60
2022-11-16T06:17:25.766Z,1.80
2022-11-16T06:19:53.222Z,1.77
2022-11-16T06:22:20.713Z,1.70
2022-11-16T06:24:48.146Z,1.70
2022-11-16T06:27:15.917Z,1.60
2022-11-16T06:29:43.343Z,1.80
2022-11-16T06:32:10.814Z,1.80
2022-11-16T06:34:39.583Z,2.03
2022-11-16T06:37:07.050Z,2.03
2022-11-16T06:39:34.492Z,2.30
2022-11-16T06:42:01.950Z,2.30
2022-11-16T06:44:29.407Z,1.88
2022-11-16T06:46:56.915Z,2.15
2022-11-16T06:49:24.388Z,2.13
2022-11-16T06:51:53.198Z,2.03
2022-11-16T06:54:20.648Z,2.13
2022-11-16T06:56:48.126Z,2.47
2022-11-16T06:59:15.599Z,2.10
2022-11-16T07:01:43.541Z,2.53
2022-11-16T07:04:11.897Z,2.10
2022-11-16T07:06:39.980Z,2.15
2022-11-16T07:09:09.579Z,2.40
2022-11-16T07:11:37.847Z,2.33
2022-11-16T07:14:05.505Z,2.80
2022-11-16T07:16:35.551Z,2.97
2022-11-16T07:19:03.307Z,2.63
2022-11-16T07:21:31.703Z,3.17
2022-11-16T07:23:59.136Z,2.83
2022-11-16T07:26:28.774Z,2.92
2022-11-16T07:28:56.225Z,2.92
2022-11-16T07:31:23.681Z,3.10
2022-11-16T07:33:52.181Z,2.75
2022-11-16T07:36:20.364Z,2.60
2022-11-16T07:38:48.009Z,2.55
2022-11-16T07:41:17.808Z,3.20
2022-11-16T07:43:52.647Z,2.70
2022-11-16T07:46:46.539Z,2.67
2022-11-16T07:49:15.889Z,2.20
2022-11-16T07:51:43.911Z,2.53
2022-11-16T07:54:13.322Z,2.50
2022-11-16T07:56:41.111Z,2.72
2022-11-16T07:59:09.950Z,2.03
2022-11-16T08:01:37.501Z,2.40
2022-11-16T08:04:04.980Z,2.42
2022-11-16T08:06:32.842Z,1.80
2022-11-16T08:09:00.755Z,2.03
2022-11-16T08:11:28.388Z,2.15
2022-11-16T08:13:56.955Z,2.50
2022-11-16T08:16:25.769Z,2.42
2022-11-16T08:18:53.360Z,2.75
2022-11-16T08:21:20.973Z,2.42
2022-11-16T08:23:50.627Z,2.78
2022-11-16T08:26:22.015Z,2.60
2022-11-16T08:28:53.560Z,2.60
2022-11-16T08:31:23.942Z,2.70
2022-11-16T08:33:53.059Z,2.55
2022-11-16T08:36:21.274Z,2.83
2022-11-16T08:38:50.662Z,2.80
2022-11-16T08:41:19.324Z,3.10
2022-11-16T08:43:47.462Z,3.08
2022-11-16T08:46:15.530Z,2.72
2022-11-16T08:48:43.616Z,2.40
2022-11-16T08:51:17.810Z,2.83
2022-11-16T08:53:47.867Z,2.45
2022-11-16T08:56:16.061Z,2.97
2022-11-16T08:58:46.618Z,2.50
2022-11-16T09:01:16.168Z,2.47
2022-11-16T09:03:44.916Z,2.88
2022-11-16T09:06:14.438Z,2.13
2022-11-16T09:08:44.337Z,2.90
2022-11-16T09:11:13.198Z,2.30
2022-11-16T09:13:40.682Z,2.83
2022-11-16T09:16:08.725Z,2.08
2022-11-16T09:18:37.144Z,2.38
2022-11-16T09:21:05.306Z,2.33
2022-11-16T09:23:34.141Z,2.58
2022-11-16T09:26:03.279Z,2.15
2022-11-16T09:28:31.589Z,2.50
2022-11-16T09:31:02.136Z,2.08
2022-11-16T09:33:31.607Z,2.03
2022-11-16T09:36:02.449Z,1.88
2022-11-16T09:38:46.573Z,1.95
2022-11-16T09:41:35.560Z,1.90
2022-11-16T09:44:12.440Z,2.38
2022-11-16T09:46:43.988Z,1.92
2022-11-16T09:49:17.652Z,2.10
2022-11-16T09:51:49.619Z,1.80
2022-11-16T09:54:21.066Z,2.05
2022-11-16T09:56:53.502Z,2.08
2022-11-16T09:59:25.297Z,2.35
2022-11-16T10:01:56.931Z,2.22
2022-11-16T10:04:36.339Z,1.83
2022-11-16T10:07:07.280Z,2.10
2022-11-16T10:09:36.247Z,2.30
2022-11-16T10:12:17.796Z,2.28
2022-11-16T10:15:04.832Z,2.05
2022-11-16T10:17:45.764Z,2.10
2022-11-16T10:20:36.136Z,2.03
2022-11-16T10:23:12.880Z,2.15
2022-11-16T10:25:44.567Z,1.55
2022-11-16T10:28:28.338Z,1.83
2022-11-16T10:31:00.875Z,1.67
2022-11-16T10:33:35.596Z,1.80
2022-11-16T10:36:09.388Z,2.10
2022-11-16T10:38:37.587Z,1.90
2022-11-16T10:41:17.004Z,1.70
2022-11-16T10:43:46.573Z,1.85
2022-11-16T10:46:22.183Z,1.90
2022-11-16T10:49:01.238Z,1.95
2022-11-16T10:51:28.780Z,1.63
2022-11-16T10:53:57.007Z,1.70
2022-11-16T10:56:28.264Z,1.85
2022-11-16T10:58:59.728Z,2.00
2022-11-16T11:01:38.711Z,1.77
2022-11-16T11:04:24.301Z,1.70
2022-11-16T11:09:31.777Z,1.55
2022-11-16T11:12:18.832Z,1.92
2022-11-16T11:15:02.457Z,1.65
2022-11-16T11:17:31.363Z,1.65
2022-11-16T11:20:01.130Z,1.80
2022-11-16T11:22:29.131Z,2.40
2022-11-16T11:24:57.175Z,2.20
2022-11-16T11:27:28.867Z,2.00
2022-11-16T11:30:00.180Z,1.80
2022-11-16T11:32:33.752Z,1.83
2022-11-16T11:35:03.431Z,1.90
2022-11-16T11:37:33.919Z,1.90
2022-11-16T11:40:19.391Z,1.70
2022-11-16T11:42:54.793Z,1.67
2022-11-16T11:45:30.513Z,1.92
2022-11-16T11:48:02.028Z,1.60
2022-11-16T11:50:46.211Z,1.90
2022-11-16T11:53:24.806Z,2.03
2022-11-16T11:55:57.184Z,1.58
2022-11-16T11:58:30.031Z,1.80
2022-11-16T12:01:19.429Z,1.85
2022-11-16T12:04:10.266Z,1.70
2022-11-16T12:06:44.372Z,2.65
2022-11-16T12:09:37.339Z,2.00
2022-11-16T12:12:19.155Z,1.45
2022-11-16T12:14:58.945Z,1.90
2022-11-16T12:17:38.255Z,2.40
2022-11-16T12:20:26.007Z,2.00
2022-11-16T12:23:22.989Z,1.45
2022-11-16T12:26:00.431Z,1.95
2022-11-16T12:28:44.972Z,1.50
2022-11-16T12:31:35.636Z,1.52
2022-11-16T12:34:17.247Z,1.67
2022-11-16T12:36:55.643Z,1.67
2022-11-16T12:39:25.166Z,2.03
2022-11-16T12:42:10.846Z,1.90
2022-11-16T12:44:52.660Z,1.70
2022-11-16T12:47:32.479Z,1.70
2022-11-16T12:50:09.578Z,1.45
2022-11-16T12:52:58.735Z,1.63
2022-11-16T12:55:32.557Z,1.60
2022-11-16T12:58:15.271Z,1.23
2022-11-16T13:01:02.530Z,1.60
2022-11-16T13:03:39.365Z,1.95
2022-11-16T13:06:12.629Z,1.50
2022-11-16T13:08:50.336Z,2.00
2022-11-16T13:11:23.670Z,1.73
2022-11-16T13:13:56.762Z,1.55
2022-11-16T13:16:25.633Z,1.98
2022-11-16T13:18:53.784Z,1.70
2022-11-16T13:21:37.092Z,1.75
2022-11-16T13:24:16.859Z,1.45
2022-11-16T13:26:52.720Z,1.50
2022-11-16T13:29:30.173Z,1.70
2022-11-16T13:32:06.584Z,1.30
2022-11-16T13:34:37.110Z,1.92
2022-11-16T13:37:44.101Z,1.42
2022-11-16T13:40:24.164Z,1.50
2022-11-16T13:43:19.955Z,1.73
2022-11-16T13:45:59.614Z,1.40
2022-11-16T13:48:33.257Z,1.40
2022-11-16T13:51:03.579Z,1.50
2022-11-16T13:54:42.772Z,1.70
2022-11-16T13:56:28.734Z,1.95
2022-11-16T13:58:58.198Z,1.60
2022-11-16T14:01:26.497Z,1.63
2022-11-16T14:04:36.182Z,1.80
2022-11-16T14:07:03.752Z,1.80
2022-11-16T14:09:47.709Z,2.22
2022-11-16T14:12:52.625Z,2.20
2022-11-16T14:15:21.871Z,2.67
2022-11-16T14:17:57.513Z,2.10
2022-11-16T14:20:35.219Z,1.70
2022-11-16T14:23:15.104Z,1.55
2022-11-16T14:25:53.702Z,1.45
2022-11-16T14:28:39.023Z,2.33
2022-11-16T14:31:18.204Z,2.00
2022-11-16T14:33:50.980Z,1.58
2022-11-16T14:36:18.781Z,2.00
2022-11-16T14:38:46.529Z,1.48
2022-11-16T14:41:21.860Z,2.22
2022-11-16T14:43:54.768Z,1.58
2022-11-16T14:46:25.918Z,1.80
2022-11-16T14:48:56.118Z,1.50
2022-11-16T14:51:27.800Z,1.92
2022-11-16T14:53:58.527Z,1.88
2022-11-16T14:56:27.829Z,2.00
2022-11-16T14:58:56.623Z,1.90
2022-11-16T15:01:26.904Z,1.77
2022-11-16T15:03:58.242Z,1.88
2022-11-16T15:06:27.091Z,1.90
2022-11-16T15:08:59.274Z,2.22
2022-11-16T15:11:59.338Z,2.00
2022-11-16T15:14:29.603Z,1.80
2022-11-16T15:16:58.676Z,1.80
2022-11-16T15:19:30.675Z,2.53
2022-11-16T15:21:59.776Z,2.40
2022-11-16T15:24:30.875Z,2.05
2022-11-16T15:27:10.467Z,2.20
2022-11-16T15:29:38.380Z,2.15
2022-11-16T15:32:08.007Z,1.65
2022-11-16T15:34:35.644Z,2.10
2022-11-16T15:37:03.136Z,2.10
2022-11-16T15:39:35.266Z,1.55
2022-11-16T15:42:04.654Z,1.73
2022-11-16T15:44:32.987Z,1.63
2022-11-16T15:47:01.104Z,2.20
2022-11-16T15:49:31.029Z,1.52
2022-11-16T15:51:59.336Z,2.15
2022-11-16T15:54:28.367Z,1.90
2022-11-16T15:56:57.723Z,1.95
2022-11-16T15:59:30.936Z,1.60
2022-11-16T16:01:58.823Z,1.70
2022-11-16T16:04:27.408Z,1.88
2022-11-16T16:06:57.305Z,2.05
2022-11-16T16:09:27.875Z,1.92
2022-11-16T16:11:57.199Z,1.70
2022-11-16T16:14:28.639Z,1.95
2022-11-16T16:16:58.291Z,1.77
2022-11-16T16:19:32.969Z,1.65
2022-11-16T16:22:01.136Z,1.83
2022-11-16T16:24:37.622Z,2.30
2022-11-16T16:27:11.825Z,1.90
2022-11-16T16:29:40.950Z,2.30
2022-11-16T16:32:13.200Z,1.95
2022-11-16T16:34:42.377Z,3.08
2022-11-16T16:37:12.093Z,2.30
2022-11-16T16:39:39.830Z,2.25
2022-11-16T16:42:10.537Z,1.88
2022-11-16T16:44:38.069Z,2.10
2022-11-16T16:47:07.399Z,2.30
2022-11-16T16:49:35.269Z,2.40
2022-11-16T16:52:02.802Z,2.10
2022-11-16T16:54:30.492Z,2.10
2022-11-16T16:56:58.286Z,2.58
2022-11-16T16:59:26.032Z,2.08
2022-11-16T17:01:53.699Z,2.33
2022-11-16T17:04:22.720Z,2.58
2022-11-16T17:06:51.854Z,2.30
2022-11-16T17:09:19.650Z,2.63
2022-11-16T17:11:47.901Z,2.70
2022-11-16T17:14:15.561Z,2.42
2022-11-16T17:16:43.168Z,2.58
2022-11-16T17:19:10.834Z,2.42
2022-11-16T17:21:39.613Z,2.20
2022-11-16T17:24:07.247Z,1.95
2022-11-16T17:26:34.715Z,2.00
2022-11-16T17:29:02.329Z,2.33
2022-11-16T17:31:29.913Z,2.60
2022-11-16T17:33:58.319Z,2.33
2022-11-16T17:36:25.780Z,2.13
2022-11-16T17:38:54.577Z,2.45
2022-11-16T17:41:22.571Z,1.85
2022-11-16T17:43:54.048Z,2.20
2022-11-16T17:46:24.230Z,2.50
2022-11-16T17:48:52.071Z,2.10
2022-11-16T17:51:22.258Z,2.30
2022-11-16T17:53:50.439Z,2.10
2022-11-16T17:56:20.831Z,2.13
2022-11-16T17:58:49.939Z,2.30
2022-11-16T18:01:17.919Z,2.30
2022-11-16T18:03:45.784Z,2.10
2022-11-16T18:06:15.838Z,2.20
2022-11-16T18:08:44.321Z,1.80
2022-11-16T18:11:13.974Z,2.22
2022-11-16T18:13:43.490Z,2.25
2022-11-16T18:16:13.550Z,2.42
2022-11-16T18:18:41.585Z,1.73
2022-11-16T18:21:10.087Z,2.28
2022-11-16T18:23:38.581Z,2.30
2022-11-16T18:26:08.874Z,2.10
2022-11-16T18:28:37.098Z,2.10
2022-11-16T18:31:09.528Z,2.33
2022-11-16T18:33:38.497Z,2.13
2022-11-16T18:36:07.595Z,2.00
2022-11-16T18:38:36.202Z,2.33
2022-11-16T18:41:05.799Z,2.45
2022-11-16T18:43:34.645Z,3.00
2022-11-16T18:46:02.672Z,2.88
2022-11-16T18:48:40.797Z,2.67
2022-11-16T18:51:08.499Z,3.25
2022-11-16T18:53:36.315Z,3.08
2022-11-16T18:56:04.702Z,2.72
2022-11-16T18:58:49.682Z,2.60
2022-11-16T19:01:19.788Z,2.72
2022-11-16T19:03:48.919Z,2.90
2022-11-16T19:06:19.587Z,2.50
2022-11-16T19:08:54.063Z,2.45
2022-11-16T19:11:23.270Z,2.72
2022-11-16T19:13:53.955Z,2.92
2022-11-16T19:16:21.824Z,2.83
2022-11-16T19:18:50.738Z,2.47
2022-11-16T19:21:19.392Z,2.80
2022-11-16T19:23:48.066Z,2.90
2022-11-16T19:26:17.154Z,2.80
2022-11-16T19:28:46.032Z,2.80
2022-11-16T19:31:15.602Z,2.60
2022-11-16T19:33:44.281Z,2.97
2022-11-16T19:36:14.896Z,3.03
2022-11-16T19:38:43.944Z,2.55
2022-11-16T19:41:13.277Z,2.67
2022-11-16T19:43:41.108Z,3.03
2022-11-16T19:46:10.697Z,2.90
2022-11-16T19:48:39.125Z,3.00
2022-11-16T19:51:07.866Z,3.08
2022-11-16T19:53:37.591Z,3.05
2022-11-16T19:56:06.026Z,3.17
2022-11-16T19:58:36.896Z,2.70
2022-11-16T20:01:05.522Z,3.00
2022-11-16T20:03:33.687Z,3.05
2022-11-16T20:06:06.890Z,3.60
2022-11-16T20:08:35.858Z,3.50
2022-11-16T20:11:11.021Z,3.38
2022-11-16T20:13:39.282Z,2.80
2022-11-16T20:16:08.036Z,3.83
2022-11-16T20:18:35.494Z,2.50
2022-11-16T20:21:05.419Z,3.38
2022-11-16T20:23:35.257Z,3.25
2022-11-16T20:26:06.575Z,2.70
2022-11-16T20:28:37.908Z,3.00
2022-11-16T20:31:09.656Z,3.50
2022-11-16T20:33:37.585Z,3.22
2022-11-16T20:36:07.505Z,3.20
2022-11-16T20:38:35.550Z,3.25
2022-11-16T20:41:12.026Z,3.15
2022-11-16T20:43:40.302Z,4.38
2022-11-16T20:46:07.968Z,3.05
2022-11-16T20:48:35.509Z,3.05
2022-11-16T20:51:03.237Z,3.20
2022-11-16T20:56:29.339Z,2.72
2022-11-16T20:58:58.147Z,2.53
2022-11-16T21:01:31.348Z,1.95
2022-11-16T21:04:00.936Z,2.30
2022-11-16T21:06:29.230Z,2.25
2022-11-16T21:08:57.167Z,2.50
2022-11-16T21:11:26.970Z,2.53
2022-11-16T21:14:14.227Z,2.63
2022-11-16T21:16:41.945Z,2.90
2022-11-16T21:19:09.537Z,3.05
2022-11-16T21:21:37.931Z,2.92
2022-11-16T21:24:05.692Z,3.33
2022-11-16T21:26:34.085Z,2.47
2022-11-16T21:29:02.978Z,2.60
2022-11-16T21:31:32.755Z,2.95
2022-11-16T21:34:01.389Z,2.78
2022-11-16T21:36:30.372Z,2.70
2022-11-16T21:38:58.877Z,2.95
2022-11-16T21:41:26.986Z,2.75
2022-11-16T21:43:54.640Z,2.83
2022-11-16T21:46:25.798Z,2.78
2022-11-16T21:48:55.276Z,2.55
2022-11-16T21:51:24.649Z,2.47
2022-11-16T21:53:52.126Z,2.30
2022-11-16T21:56:21.654Z,2.80
2022-11-16T21:58:49.964Z,2.47
2022-11-16T22:01:17.564Z,2.80
2022-11-16T22:03:46.441Z,2.85
2022-11-16T22:06:33.446Z,2.53
2022-11-16T22:09:01.035Z,2.45
2022-11-16T22:11:28.514Z,2.90
2022-11-16T22:13:55.969Z,3.15
2022-11-16T22:16:23.963Z,2.72
2022-11-16T22:18:52.792Z,2.63
2022-11-16T22:21:20.226Z,3.00
2022-11-16T22:23:47.723Z,3.00
2022-11-16T22:26:15.523Z,2.60
2022-11-16T22:28:42.961Z,2.80
2022-11-16T22:31:12.680Z,2.88
2022-11-16T22:33:40.422Z,2.38
2022-11-16T22:36:10.660Z,2.42
2022-11-16T22:38:38.797Z,2.60
2022-11-16T22:41:06.579Z,2.33
2022-11-16T22:43:35.853Z,3.00
2022-11-16T22:46:05.712Z,2.30
2022-11-16T22:48:34.187Z,3.25
2022-11-16T22:51:06.561Z,2.55
2022-11-16T22:53:35.649Z,2.60
2022-11-16T22:56:07.868Z,2.58
2022-11-16T22:58:35.642Z,2.53
2022-11-16T23:01:03.202Z,2.63
2022-11-16T23:03:30.883Z,2.72
2022-11-16T23:05:58.454Z,2.45
2022-11-16T23:08:26.645Z,2.22
2022-11-16T23:11:23.339Z,2.33
2022-11-16T23:14:08.595Z,2.50
2022-11-16T23:16:36.696Z,2.00
2022-11-16T23:19:24.607Z,2.30
2022-11-16T23:22:09.582Z,2.50
2022-11-16T23:24:54.835Z,2.85
2022-11-16T23:27:32.964Z,2.75
2022-11-16T23:30:04.455Z,2.47
2022-11-16T23:32:34.171Z,2.60
2022-11-16T23:35:01.691Z,3.30
2022-11-16T23:37:29.158Z,2.22
2022-11-16T23:39:56.734Z,2.40
2022-11-16T23:42:43.218Z,2.80
2022-11-16T23:45:10.961Z,2.30
2022-11-16T23:47:38.428Z,2.42
2022-11-16T23:50:06.567Z,2.80
2022-11-16T23:52:34.058Z,2.42
2022-11-16T23:55:01.695Z,2.50
2022-11-16T23:57:30.475Z,2.50
2022-11-16T23:59:57.962Z,2.30
